Odessa, Washington
Current Conditions -  °F | °C
As of 6:52 PM on Monday 20 Oct 2014 (Local Time) from KMWH Reporting Station
Moderate Rain Moderate Rain  
Wind Chill: 57°   Ceiling: 5500
Heat Index: 57°   Visibility: 7mi
Dew Point: 53°   Wind: 9mph
Humidity: 87%   Direction: 230°SW
Pressure: 29.8"   Gusts: NA
Location:  47.33°N, 118.69°W
Report Text: KMWH 210152Z 23008KT 7SM RA OVC055 14/12 A2980 RMK AO2 RAB13 SLP095 P0005 T01390117
Loading
Personal Weather Stations






























Interactive Weather Map
Tropical Storm Tracking
New forecast layout! Learn more

10-Day Weather Forecast

Advertisements
Track Severe Weather on mobile